Time,TemperatureF,DewpointF,PressureIn,WindDirection,WindDirectionDegrees,WindSpeedMPH,WindSpeedGustMPH,Humidity,HourlyPrecipIn,Conditions,Clouds,dailyrainin,SoftwareType,DateUTC
2013-10-16 00:01:00,60.6,53.1,29.99,ENE,78,1.0,2.0,76,0.00,,,0.01,meteohub,2013-10-16 04:01:00,
2013-10-16 00:02:00,60.6,53.4,29.99,East,99,0.0,2.0,77,0.00,,,0.01,meteohub,2013-10-16 04:02:00,
2013-10-16 00:03:00,60.6,53.1,29.99,ENE,71,1.0,2.0,76,0.00,,,0.01,meteohub,2013-10-16 04:03:00,
2013-10-16 00:04:00,60.8,53.2,29.99,SW,214,1.0,2.0,76,0.00,,,0.01,meteohub,2013-10-16 04:04:00,
2013-10-16 00:09:00,61.0,53.4,29.99,West,271,0.0,2.0,76,0.00,,,0.00,meteohub,2013-10-16 04:09:00,
2013-10-16 00:12:00,60.8,53.2,29.99,West,281,0.0,2.0,76,0.00,,,0.00,meteohub,2013-10-16 04:12:00,
2013-10-16 00:18:00,61.3,52.7,29.99,SSE,155,0.0,2.0,73,0.00,,,0.00,meteohub,2013-10-16 04:18:00,
2013-10-16 00:23:00,62.2,52.0,29.98,ESE,108,2.0,3.0,69,0.00,,,0.00,meteohub,2013-10-16 04:23:00,
2013-10-16 00:28:00,63.0,51.8,29.98,East,100,2.0,4.0,67,0.00,,,0.00,meteohub,2013-10-16 04:28:00,
2013-10-16 00:33:00,63.3,52.5,29.99,ESE,120,1.0,5.0,68,0.00,,,0.00,meteohub,2013-10-16 04:33:00,
2013-10-16 00:38:00,63.3,52.2,29.98,West,276,2.0,5.0,67,0.00,,,0.00,meteohub,2013-10-16 04:38:00,
2013-10-16 00:43:00,62.8,52.5,29.99,ENE,62,1.0,6.0,69,0.00,,,0.00,meteohub,2013-10-16 04:43:00,
2013-10-16 00:48:00,61.9,52.0,29.99,West,276,3.0,6.0,70,0.00,,,0.00,meteohub,2013-10-16 04:48:00,
2013-10-16 00:53:00,62.1,52.2,29.99,West,264,0.0,4.0,70,0.00,,,0.00,meteohub,2013-10-16 04:53:00,
2013-10-16 00:58:00,62.4,51.3,29.98,SE,131,3.0,4.0,67,0.00,,,0.00,meteohub,2013-10-16 04:58:00,
2013-10-16 01:03:00,63.0,51.4,29.99,SE,145,0.0,4.0,66,0.00,,,0.00,meteohub,2013-10-16 05:03:00,
2013-10-16 01:08:00,62.6,51.4,29.99,ENE,75,1.0,4.0,67,0.00,,,0.00,meteohub,2013-10-16 05:08:00,
2013-10-16 01:13:00,62.2,50.4,29.99,West,277,0.0,4.0,65,0.00,,,0.00,meteohub,2013-10-16 05:13:00,
2013-10-16 01:18:00,61.7,51.1,29.99,West,274,0.0,4.0,68,0.00,,,0.00,meteohub,2013-10-16 05:18:00,
2013-10-16 01:23:00,61.2,50.9,29.99,ENE,68,0.0,4.0,69,0.00,,,0.00,meteohub,2013-10-16 05:23:00,
2013-10-16 01:29:00,61.2,50.9,29.99,West,263,0.0,2.0,69,0.00,,,0.00,meteohub,2013-10-16 05:29:00,
2013-10-16 01:34:00,61.0,50.7,29.99,SSW,197,0.0,2.0,69,0.00,,,0.00,meteohub,2013-10-16 05:34:00,
2013-10-16 01:39:00,60.4,50.2,29.99,SE,127,1.0,1.0,69,0.00,,,0.00,meteohub,2013-10-16 05:39:00,
2013-10-16 01:44:00,60.4,49.8,29.99,East,98,0.0,1.0,68,0.00,,,0.00,meteohub,2013-10-16 05:44:00,
2013-10-16 01:49:00,60.6,49.6,30.00,East,94,0.0,2.0,67,0.00,,,0.00,meteohub,2013-10-16 05:49:00,
2013-10-16 01:54:00,61.0,49.1,29.99,ENE,67,0.0,2.0,65,0.00,,,0.00,meteohub,2013-10-16 05:54:00,
2013-10-16 01:59:00,61.0,49.5,29.99,East,90,0.0,1.0,66,0.00,,,0.00,meteohub,2013-10-16 05:59:00,
2013-10-16 02:04:00,60.8,49.8,29.98,ESE,121,0.0,1.0,67,0.00,,,0.00,meteohub,2013-10-16 06:04:00,
2013-10-16 02:09:00,60.3,50.4,29.98,SE,135,0.0,1.0,70,0.00,,,0.00,meteohub,2013-10-16 06:09:00,
2013-10-16 02:14:00,59.7,50.7,29.98,SE,132,0.0,1.0,72,0.00,,,0.00,meteohub,2013-10-16 06:14:00,
2013-10-16 02:19:00,58.8,50.9,29.98,SE,132,0.0,1.0,75,0.00,,,0.00,meteohub,2013-10-16 06:19:00,
2013-10-16 02:24:00,58.3,51.8,29.98,SE,132,0.0,1.0,79,0.00,,,0.00,meteohub,2013-10-16 06:24:00,
2013-10-16 02:29:00,57.2,51.4,29.99,ESE,114,0.0,1.0,81,0.00,,,0.00,meteohub,2013-10-16 06:29:00,
2013-10-16 02:34:00,56.7,51.3,29.99,ESE,114,0.0,0.0,82,0.00,,,0.00,meteohub,2013-10-16 06:34:00,
2013-10-16 02:39:00,56.5,51.4,29.99,ESE,114,0.0,0.0,83,0.00,,,0.00,meteohub,2013-10-16 06:39:00,
2013-10-16 02:45:00,56.3,51.3,29.99,ESE,116,0.0,0.0,83,0.00,,,0.00,meteohub,2013-10-16 06:45:00,
2013-10-16 02:50:00,55.9,51.3,29.99,ESE,115,0.0,0.0,84,0.00,,,0.00,meteohub,2013-10-16 06:50:00,
2013-10-16 02:55:00,55.8,51.1,29.99,ESE,116,0.0,0.0,84,0.00,,,0.00,meteohub,2013-10-16 06:55:00,
2013-10-16 03:00:00,55.6,49.8,29.98,ESE,116,0.0,0.0,81,0.00,,,0.00,meteohub,2013-10-16 07:00:00,
2013-10-16 03:05:00,55.6,50.5,29.98,ESE,116,0.0,0.0,83,0.00,,,0.00,meteohub,2013-10-16 07:05:00,
2013-10-16 03:10:00,55.2,50.5,29.98,ESE,114,0.0,0.0,84,0.00,,,0.00,meteohub,2013-10-16 07:10:00,
2013-10-16 03:15:00,55.2,50.5,29.98,ESE,115,0.0,0.0,84,0.00,,,0.00,meteohub,2013-10-16 07:15:00,
2013-10-16 03:20:00,55.0,50.5,29.98,ESE,114,0.0,0.0,85,0.00,,,0.00,meteohub,2013-10-16 07:20:00,
2013-10-16 03:25:00,54.9,50.7,29.98,ESE,115,0.0,0.0,86,0.00,,,0.00,meteohub,2013-10-16 07:25:00,
2013-10-16 03:30:00,54.9,50.4,29.98,ESE,116,0.0,0.0,85,0.00,,,0.00,meteohub,2013-10-16 07:30:00,
2013-10-16 03:35:00,54.9,50.4,29.99,ESE,116,0.0,0.0,85,0.00,,,0.00,meteohub,2013-10-16 07:35:00,
2013-10-16 03:40:00,54.7,50.5,29.98,ESE,116,0.0,0.0,86,0.00,,,0.00,meteohub,2013-10-16 07:40:00,
2013-10-16 03:45:00,54.5,50.4,29.98,ESE,116,0.0,0.0,86,0.00,,,0.00,meteohub,2013-10-16 07:45:00,
2013-10-16 03:50:00,54.3,50.5,29.98,ESE,116,0.0,0.0,87,0.00,,,0.00,meteohub,2013-10-16 07:50:00,
2013-10-16 03:55:00,54.1,50.7,29.98,ESE,115,0.0,0.0,88,0.00,,,0.00,meteohub,2013-10-16 07:55:00,
2013-10-16 04:01:00,54.1,50.7,29.98,ESE,116,0.0,0.0,88,0.00,,,0.00,meteohub,2013-10-16 08:01:00,
2013-10-16 04:06:00,54.1,50.7,29.97,ESE,115,0.0,0.0,88,0.00,,,0.00,meteohub,2013-10-16 08:06:00,
2013-10-16 04:11:00,54.1,50.7,29.97,ESE,116,0.0,0.0,88,0.00,,,0.00,meteohub,2013-10-16 08:11:00,
2013-10-16 04:16:00,54.1,50.7,29.97,ESE,115,0.0,0.0,88,0.00,,,0.00,meteohub,2013-10-16 08:16:00,
2013-10-16 04:21:00,54.1,50.9,29.97,ESE,115,0.0,0.0,89,0.00,,,0.00,meteohub,2013-10-16 08:21:00,
2013-10-16 04:26:00,54.0,50.7,29.97,ESE,116,0.0,0.0,89,0.00,,,0.00,meteohub,2013-10-16 08:26:00,
2013-10-16 04:31:00,53.8,50.9,29.97,ESE,116,0.0,0.0,90,0.00,,,0.00,meteohub,2013-10-16 08:31:00,
2013-10-16 04:36:00,53.8,50.9,29.97,ESE,116,0.0,0.0,90,0.00,,,0.00,meteohub,2013-10-16 08:36:00,
2013-10-16 04:41:00,54.0,51.1,29.97,ESE,116,0.0,0.0,90,0.00,,,0.00,meteohub,2013-10-16 08:41:00,
2013-10-16 04:46:00,54.0,50.5,29.97,ESE,115,0.0,0.0,88,0.00,,,0.00,meteohub,2013-10-16 08:46:00,
2013-10-16 04:51:00,54.1,50.7,29.97,ESE,115,0.0,0.0,88,0.00,,,0.00,meteohub,2013-10-16 08:51:00,
2013-10-16 04:56:00,54.3,51.1,29.96,ESE,116,0.0,0.0,89,0.00,,,0.00,meteohub,2013-10-16 08:56:00,
2013-10-16 05:01:00,54.1,50.9,29.96,ESE,115,0.0,0.0,89,0.00,,,0.00,meteohub,2013-10-16 09:01:00,
2013-10-16 05:06:00,54.1,50.9,29.96,ESE,115,0.0,0.0,89,0.00,,,0.00,meteohub,2013-10-16 09:06:00,
2013-10-16 05:11:00,54.1,51.3,29.96,ESE,116,0.0,0.0,90,0.00,,,0.00,meteohub,2013-10-16 09:11:00,
2013-10-16 05:17:00,54.1,51.3,29.96,ESE,115,0.0,0.0,90,0.00,,,0.00,meteohub,2013-10-16 09:17:00,
2013-10-16 05:22:00,54.0,51.1,29.96,ESE,115,0.0,0.0,90,0.00,,,0.00,meteohub,2013-10-16 09:22:00,
2013-10-16 05:27:00,54.0,51.1,29.96,ESE,116,0.0,0.0,90,0.00,,,0.00,meteohub,2013-10-16 09:27:00,
2013-10-16 05:32:00,54.1,51.3,29.96,ESE,115,0.0,0.0,90,0.00,,,0.00,meteohub,2013-10-16 09:32:00,
2013-10-16 05:37:00,54.1,51.3,29.96,ESE,116,0.0,0.0,90,0.00,,,0.00,meteohub,2013-10-16 09:37:00,
2013-10-16 05:42:00,54.1,50.9,29.96,ESE,116,0.0,0.0,89,0.00,,,0.00,meteohub,2013-10-16 09:42:00,
2013-10-16 05:47:00,54.1,50.9,29.96,ESE,115,0.0,0.0,89,0.00,,,0.00,meteohub,2013-10-16 09:47:00,
2013-10-16 05:52:00,54.3,51.1,29.96,ESE,115,0.0,0.0,89,0.00,,,0.00,meteohub,2013-10-16 09:52:00,
2013-10-16 05:57:00,54.3,51.4,29.96,ESE,116,0.0,0.0,90,0.00,,,0.00,meteohub,2013-10-16 09:57:00,
2013-10-16 06:02:00,54.3,51.4,29.96,ESE,116,0.0,0.0,90,0.00,,,0.00,meteohub,2013-10-16 10:02:00,
2013-10-16 06:07:00,54.3,51.4,29.96,ESE,116,0.0,0.0,90,0.00,,,0.00,meteohub,2013-10-16 10:07:00,
2013-10-16 06:12:00,54.3,51.8,29.96,ESE,115,0.0,0.0,91,0.00,,,0.00,meteohub,2013-10-16 10:12:00,
2013-10-16 06:17:00,54.3,51.8,29.96,ESE,116,0.0,0.0,91,0.00,,,0.00,meteohub,2013-10-16 10:17:00,
2013-10-16 06:23:00,54.3,51.8,29.96,ESE,115,0.0,0.0,91,0.00,,,0.00,meteohub,2013-10-16 10:23:00,
2013-10-16 06:28:00,54.3,51.8,29.96,ESE,115,0.0,0.0,91,0.00,,,0.00,meteohub,2013-10-16 10:28:00,
2013-10-16 06:33:00,54.3,52.0,29.96,ESE,116,0.0,0.0,92,0.00,,,0.00,meteohub,2013-10-16 10:33:00,
2013-10-16 06:38:00,54.3,51.8,29.97,ESE,116,0.0,0.0,91,0.00,,,0.00,meteohub,2013-10-16 10:38:00,
2013-10-16 06:43:00,54.3,51.8,29.97,ESE,115,0.0,0.0,91,0.00,,,0.00,meteohub,2013-10-16 10:43:00,
2013-10-16 06:48:00,54.7,52.2,29.97,ESE,115,0.0,0.0,91,0.00,,,0.00,meteohub,2013-10-16 10:48:00,
2013-10-16 06:53:00,54.9,52.0,29.97,ESE,116,0.0,0.0,90,0.00,,,0.00,meteohub,2013-10-16 10:53:00,
2013-10-16 06:58:00,55.0,51.8,29.97,ESE,116,0.0,0.0,89,0.00,,,0.00,meteohub,2013-10-16 10:58:00,
2013-10-16 07:03:00,55.4,52.5,29.97,ESE,116,0.0,0.0,90,0.00,,,0.00,meteohub,2013-10-16 11:03:00,
2013-10-16 07:08:00,55.6,53.1,29.98,ESE,115,0.0,0.0,91,0.00,,,0.00,meteohub,2013-10-16 11:08:00,
2013-10-16 07:13:00,55.6,53.1,29.98,ESE,116,0.0,0.0,91,0.00,,,0.00,meteohub,2013-10-16 11:13:00,
2013-10-16 07:18:00,55.6,52.7,29.98,ESE,115,0.0,0.0,90,0.00,,,0.00,meteohub,2013-10-16 11:18:00,
2013-10-16 07:23:00,55.4,52.5,29.98,ESE,116,0.0,0.0,90,0.00,,,0.00,meteohub,2013-10-16 11:23:00,
2013-10-16 07:28:00,55.2,52.3,29.97,ESE,116,0.0,0.0,90,0.00,,,0.00,meteohub,2013-10-16 11:28:00,
2013-10-16 07:34:00,55.2,52.3,29.97,ESE,116,0.0,0.0,90,0.00,,,0.00,meteohub,2013-10-16 11:34:00,
2013-10-16 07:39:00,55.2,52.7,29.98,ESE,115,0.0,0.0,91,0.00,,,0.00,meteohub,2013-10-16 11:39:00,
2013-10-16 07:44:00,55.0,52.5,29.98,ESE,116,0.0,0.0,91,0.00,,,0.00,meteohub,2013-10-16 11:44:00,
2013-10-16 07:49:00,55.0,52.5,29.98,ESE,115,0.0,0.0,91,0.00,,,0.00,meteohub,2013-10-16 11:49:00,
2013-10-16 07:54:00,55.0,52.5,29.98,ESE,115,0.0,0.0,91,0.00,,,0.00,meteohub,2013-10-16 11:54:00,
2013-10-16 07:59:00,55.0,52.5,29.98,ESE,116,0.0,0.0,91,0.00,,,0.00,meteohub,2013-10-16 11:59:00,
2013-10-16 08:04:00,55.2,52.7,29.98,ESE,115,0.0,0.0,91,0.00,,,0.00,meteohub,2013-10-16 12:04:00,
2013-10-16 08:09:00,55.4,52.9,29.98,ESE,116,0.0,0.0,91,0.00,,,0.00,meteohub,2013-10-16 12:09:00,
2013-10-16 08:14:00,55.6,53.1,29.98,ESE,116,0.0,0.0,91,0.00,,,0.00,meteohub,2013-10-16 12:14:00,
2013-10-16 08:19:00,55.6,53.1,29.98,ESE,116,0.0,0.0,91,0.00,,,0.00,meteohub,2013-10-16 12:19:00,
2013-10-16 08:24:00,55.8,53.4,29.98,ESE,115,0.0,0.0,92,0.00,,,0.00,meteohub,2013-10-16 12:24:00,
2013-10-16 08:30:00,55.9,53.6,29.98,ESE,115,0.0,0.0,92,0.00,,,0.00,meteohub,2013-10-16 12:30:00,
2013-10-16 08:35:00,55.9,53.4,29.98,ESE,115,0.0,0.0,91,0.00,,,0.00,meteohub,2013-10-16 12:35:00,
2013-10-16 08:40:00,56.1,53.6,29.98,ESE,115,0.0,0.0,91,0.00,,,0.00,meteohub,2013-10-16 12:40:00,
2013-10-16 08:45:00,56.5,54.1,29.98,ESE,115,0.0,0.0,92,0.00,,,0.00,meteohub,2013-10-16 12:45:00,
2013-10-16 08:50:00,56.7,54.3,29.98,ESE,115,0.0,0.0,92,0.00,,,0.00,meteohub,2013-10-16 12:50:00,
2013-10-16 08:55:00,56.8,54.5,29.99,ESE,115,0.0,0.0,92,0.00,,,0.00,meteohub,2013-10-16 12:55:00,
2013-10-16 09:00:00,56.8,54.0,29.98,ESE,115,0.0,0.0,90,0.00,,,0.00,meteohub,2013-10-16 13:00:00,
2013-10-16 09:05:00,57.0,54.1,29.98,ESE,115,0.0,0.0,90,0.00,,,0.00,meteohub,2013-10-16 13:05:00,
2013-10-16 09:10:00,57.4,53.8,29.98,ESE,115,0.0,0.0,88,0.00,,,0.00,meteohub,2013-10-16 13:10:00,
2013-10-16 09:16:00,57.7,54.0,29.98,ESE,115,0.0,0.0,87,0.00,,,0.00,meteohub,2013-10-16 13:16:00,
2013-10-16 09:21:00,58.1,54.0,29.98,ESE,116,0.0,0.0,86,0.00,,,0.00,meteohub,2013-10-16 13:21:00,
2013-10-16 09:26:00,58.5,54.7,29.98,ESE,115,0.0,0.0,87,0.00,,,0.00,meteohub,2013-10-16 13:26:00,
2013-10-16 09:31:00,58.6,54.5,29.98,ESE,116,0.0,0.0,86,0.00,,,0.00,meteohub,2013-10-16 13:31:00,
2013-10-16 09:36:00,59.0,55.2,29.98,ESE,115,0.0,0.0,87,0.00,,,0.00,meteohub,2013-10-16 13:36:00,
2013-10-16 09:41:00,59.2,55.0,29.98,ESE,115,0.0,0.0,86,0.00,,,0.00,meteohub,2013-10-16 13:41:00,
2013-10-16 09:46:00,59.5,55.0,29.98,ESE,116,0.0,0.0,85,0.00,,,0.00,meteohub,2013-10-16 13:46:00,
2013-10-16 09:51:00,59.9,55.0,29.98,ESE,116,0.0,0.0,84,0.00,,,0.00,meteohub,2013-10-16 13:51:00,
2013-10-16 09:56:00,60.3,55.4,29.98,ESE,115,0.0,0.0,84,0.00,,,0.00,meteohub,2013-10-16 13:56:00,
2013-10-16 10:01:00,60.4,55.6,29.98,ESE,115,0.0,0.0,84,0.00,,,0.00,meteohub,2013-10-16 14:01:00,
2013-10-16 10:06:00,60.6,55.8,29.98,ESE,115,0.0,0.0,84,0.00,,,0.00,meteohub,2013-10-16 14:06:00,
2013-10-16 10:11:00,61.0,56.1,29.98,ESE,116,0.0,0.0,84,0.00,,,0.00,meteohub,2013-10-16 14:11:00,
2013-10-16 10:16:00,61.3,56.5,29.98,ESE,115,0.0,0.0,84,0.00,,,0.00,meteohub,2013-10-16 14:16:00,
2013-10-16 10:22:00,62.2,54.5,29.98,ENE,72,2.0,2.0,76,0.00,,,0.00,meteohub,2013-10-16 14:22:00,
2013-10-16 10:27:00,63.1,54.3,29.97,ENE,72,0.0,2.0,73,0.00,,,0.00,meteohub,2013-10-16 14:27:00,
2013-10-16 10:32:00,63.7,54.5,29.97,ESE,118,1.0,2.0,72,0.00,,,0.00,meteohub,2013-10-16 14:32:00,
2013-10-16 10:37:00,64.2,53.8,29.97,ESE,112,3.0,5.0,69,0.00,,,0.00,meteohub,2013-10-16 14:37:00,
2013-10-16 10:42:00,64.8,55.2,29.97,ESE,105,0.0,5.0,71,0.00,,,0.00,meteohub,2013-10-16 14:42:00,
2013-10-16 10:47:00,65.5,54.3,29.97,East,84,0.0,5.0,67,0.00,,,0.00,meteohub,2013-10-16 14:47:00,
2013-10-16 10:52:00,65.7,54.3,29.97,ENE,78,0.0,3.0,67,0.00,,,0.00,meteohub,2013-10-16 14:52:00,
2013-10-16 10:57:00,65.5,53.1,29.98,WNW,283,0.0,3.0,64,0.00,,,0.00,meteohub,2013-10-16 14:57:00,
2013-10-16 11:02:00,65.7,53.2,29.98,East,81,3.0,5.0,64,0.00,,,0.00,meteohub,2013-10-16 15:02:00,
2013-10-16 11:07:00,65.8,53.2,29.98,SE,143,0.0,5.0,64,0.00,,,0.00,meteohub,2013-10-16 15:07:00,
2013-10-16 11:12:00,66.0,54.3,29.97,ENE,77,2.0,5.0,66,0.00,,,0.00,meteohub,2013-10-16 15:12:00,
2013-10-16 11:17:00,66.2,54.1,29.98,SW,231,1.0,5.0,65,0.00,,,0.00,meteohub,2013-10-16 15:17:00,
2013-10-16 11:22:00,66.2,54.1,29.98,WSW,239,1.0,5.0,65,0.00,,,0.00,meteohub,2013-10-16 15:22:00,
2013-10-16 11:27:00,66.0,54.0,29.97,West,277,0.0,5.0,65,0.00,,,0.00,meteohub,2013-10-16 15:27:00,
2013-10-16 11:32:00,66.0,54.3,29.97,NNE,25,0.0,4.0,66,0.00,,,0.00,meteohub,2013-10-16 15:32:00,
2013-10-16 11:38:00,65.8,54.5,29.97,East,79,0.0,4.0,67,0.00,,,0.00,meteohub,2013-10-16 15:38:00,
2013-10-16 11:43:00,65.7,54.9,29.97,East,93,0.0,1.0,68,0.00,,,0.00,meteohub,2013-10-16 15:43:00,
2013-10-16 11:48:00,65.5,55.0,29.97,SE,143,0.0,1.0,69,0.00,,,0.00,meteohub,2013-10-16 15:48:00,
2013-10-16 11:53:00,65.1,54.7,29.97,East,89,0.0,2.0,69,0.00,,,0.00,meteohub,2013-10-16 15:53:00,
2013-10-16 11:58:00,65.1,55.0,29.97,ESE,110,1.0,2.0,70,0.00,,,0.00,meteohub,2013-10-16 15:58:00,
2013-10-16 12:03:00,64.9,55.4,29.97,ESE,105,0.0,1.0,71,0.00,,,0.00,meteohub,2013-10-16 16:03:00,
2013-10-16 12:08:00,64.2,55.4,29.97,East,79,0.0,2.0,73,0.00,,,0.00,meteohub,2013-10-16 16:08:00,
2013-10-16 12:13:00,64.0,56.7,29.97,South,169,0.0,2.0,77,0.00,,,0.00,meteohub,2013-10-16 16:13:00,
2013-10-16 12:18:00,64.0,55.9,29.97,East,98,0.0,3.0,75,0.00,,,0.00,meteohub,2013-10-16 16:18:00,
2013-10-16 12:24:00,64.6,57.2,29.96,ESE,107,0.0,3.0,77,0.00,,,0.00,meteohub,2013-10-16 16:24:00,
2013-10-16 12:29:00,64.9,57.2,29.96,East,84,0.0,3.0,76,0.00,,,0.00,meteohub,2013-10-16 16:29:00,
2013-10-16 12:34:00,65.1,56.7,29.96,East,89,0.0,3.0,74,0.00,,,0.00,meteohub,2013-10-16 16:34:00,
2013-10-16 12:39:00,65.5,56.7,29.96,East,99,0.0,3.0,73,0.00,,,0.00,meteohub,2013-10-16 16:39:00,
2013-10-16 12:44:00,65.8,57.0,29.95,SE,145,0.0,3.0,73,0.00,,,0.00,meteohub,2013-10-16 16:44:00,
2013-10-16 12:49:00,66.6,57.6,29.95,SE,127,1.0,2.0,73,0.00,,,0.00,meteohub,2013-10-16 16:49:00,
2013-10-16 12:54:00,66.6,57.2,29.95,SW,231,0.0,1.0,72,0.00,,,0.00,meteohub,2013-10-16 16:54:00,
2013-10-16 12:59:00,66.4,57.0,29.95,East,85,0.0,2.0,72,0.00,,,0.00,meteohub,2013-10-16 16:59:00,
2013-10-16 13:04:00,66.4,57.4,29.95,WSW,257,0.0,2.0,73,0.00,,,0.00,meteohub,2013-10-16 17:04:00,
2013-10-16 13:09:00,66.4,57.4,29.94,ESE,119,0.0,2.0,73,0.00,,,0.00,meteohub,2013-10-16 17:09:00,
2013-10-16 13:14:00,66.6,58.1,29.94,East,93,0.0,1.0,74,0.00,,,0.00,meteohub,2013-10-16 17:14:00,
2013-10-16 13:19:00,66.9,58.3,29.94,East,90,0.0,1.0,74,0.00,,,0.00,meteohub,2013-10-16 17:19:00,
2013-10-16 13:24:00,67.3,58.3,29.94,East,94,1.0,2.0,73,0.00,,,0.00,meteohub,2013-10-16 17:24:00,
2013-10-16 13:29:00,67.5,58.8,29.94,West,261,0.0,2.0,74,0.00,,,0.00,meteohub,2013-10-16 17:29:00,
2013-10-16 13:35:00,67.6,58.3,29.94,West,273,0.0,4.0,72,0.00,,,0.00,meteohub,2013-10-16 17:35:00,
2013-10-16 13:40:00,67.8,58.1,29.94,West,276,1.0,4.0,71,0.00,,,0.00,meteohub,2013-10-16 17:40:00,
2013-10-16 13:45:00,67.8,58.1,29.94,WSW,257,2.0,2.0,71,0.00,,,0.00,meteohub,2013-10-16 17:45:00,
2013-10-16 13:50:00,68.0,59.0,29.93,West,261,0.0,3.0,73,0.00,,,0.00,meteohub,2013-10-16 17:50:00,
2013-10-16 13:55:00,68.4,58.6,29.93,West,265,0.0,3.0,71,0.00,,,0.00,meteohub,2013-10-16 17:55:00,
2013-10-16 14:00:00,68.5,58.8,29.93,West,281,0.0,1.0,71,0.00,,,0.00,meteohub,2013-10-16 18:00:00,
2013-10-16 14:05:00,68.5,58.8,29.93,West,273,0.0,1.0,71,0.00,,,0.00,meteohub,2013-10-16 18:05:00,
2013-10-16 14:10:00,68.7,59.0,29.92,West,273,0.0,1.0,71,0.00,,,0.00,meteohub,2013-10-16 18:10:00,
2013-10-16 14:15:00,69.3,58.6,29.92,West,267,0.0,1.0,69,0.00,,,0.00,meteohub,2013-10-16 18:15:00,
2013-10-16 14:20:00,69.4,60.1,29.91,NE,43,0.0,1.0,72,0.00,,,0.00,meteohub,2013-10-16 18:20:00,
2013-10-16 14:25:00,69.8,59.2,29.91,East,82,1.0,2.0,69,0.00,,,0.00,meteohub,2013-10-16 18:25:00,
2013-10-16 14:27:00,69.8,59.9,29.91,ESE,103,0.0,2.0,71,0.00,,,0.00,meteohub,2013-10-16 18:27:00,
2013-10-16 14:32:00,69.6,60.3,29.91,WSW,244,0.0,2.0,72,0.00,,,0.00,meteohub,2013-10-16 18:32:00,
2013-10-16 14:37:00,69.6,60.6,29.91,SW,230,0.0,2.0,73,0.00,,,0.00,meteohub,2013-10-16 18:37:00,
2013-10-16 14:42:00,69.4,59.2,29.91,WNW,285,0.0,4.0,70,0.00,,,0.00,meteohub,2013-10-16 18:42:00,
2013-10-16 14:48:00,69.3,59.9,29.91,WSW,246,0.0,5.0,72,0.00,,,0.00,meteohub,2013-10-16 18:48:00,
2013-10-16 14:53:00,69.4,59.5,29.91,West,263,2.0,5.0,71,0.00,,,0.00,meteohub,2013-10-16 18:53:00,
2013-10-16 14:58:00,69.4,59.5,29.91,WSW,255,2.0,4.0,71,0.00,,,0.00,meteohub,2013-10-16 18:58:00,
2013-10-16 15:03:00,69.4,60.1,29.91,East,95,2.0,4.0,72,0.00,,,0.00,meteohub,2013-10-16 19:03:00,
2013-10-16 15:08:00,69.4,60.4,29.91,SSW,204,0.0,5.0,73,0.00,,,0.00,meteohub,2013-10-16 19:08:00,
2013-10-16 15:13:00,69.4,60.1,29.90,ESE,116,0.0,5.0,72,0.00,,,0.00,meteohub,2013-10-16 19:13:00,
2013-10-16 15:18:00,69.3,59.9,29.90,ESE,108,1.0,4.0,72,0.00,,,0.00,meteohub,2013-10-16 19:18:00,
2013-10-16 15:23:00,69.3,60.6,29.90,ESE,120,0.0,4.0,74,0.00,,,0.00,meteohub,2013-10-16 19:23:00,
2013-10-16 15:28:00,69.4,59.5,29.90,ESE,118,1.0,6.0,71,0.00,,,0.00,meteohub,2013-10-16 19:28:00,
2013-10-16 15:33:00,69.4,60.1,29.90,South,188,1.0,6.0,72,0.00,,,0.00,meteohub,2013-10-16 19:33:00,
2013-10-16 15:38:00,69.6,59.7,29.90,East,89,2.0,6.0,71,0.00,,,0.00,meteohub,2013-10-16 19:38:00,
2013-10-16 15:43:00,69.4,60.1,29.90,ESE,117,2.0,6.0,72,0.00,,,0.00,meteohub,2013-10-16 19:43:00,
2013-10-16 15:48:00,69.4,60.4,29.90,SW,236,0.0,6.0,73,0.00,,,0.00,meteohub,2013-10-16 19:48:00,
2013-10-16 15:53:00,69.4,60.1,29.90,East,100,3.0,6.0,72,0.00,,,0.00,meteohub,2013-10-16 19:53:00,
2013-10-16 15:58:00,69.6,60.6,29.90,East,98,2.0,6.0,73,0.00,,,0.00,meteohub,2013-10-16 19:58:00,
2013-10-16 16:04:00,69.6,60.3,29.90,East,91,1.0,5.0,72,0.00,,,0.00,meteohub,2013-10-16 20:04:00,
2013-10-16 16:09:00,69.8,59.9,29.89,East,86,3.0,5.0,71,0.00,,,0.00,meteohub,2013-10-16 20:09:00,
2013-10-16 16:14:00,70.0,59.7,29.90,West,260,2.0,6.0,70,0.00,,,0.00,meteohub,2013-10-16 20:14:00,
2013-10-16 16:19:00,69.8,59.9,29.89,West,270,1.0,10.0,71,0.00,,,0.00,meteohub,2013-10-16 20:19:00,
2013-10-16 16:24:00,69.8,60.4,29.90,SE,128,3.0,10.0,72,0.00,,,0.00,meteohub,2013-10-16 20:24:00,
2013-10-16 16:29:00,69.6,59.0,29.89,West,265,6.0,7.0,69,0.00,,,0.00,meteohub,2013-10-16 20:29:00,
2013-10-16 16:34:00,69.6,59.0,29.89,West,263,3.0,4.0,69,0.00,,,0.00,meteohub,2013-10-16 20:34:00,
2013-10-16 16:39:00,69.4,59.5,29.89,WNW,290,0.0,8.0,71,0.00,,,0.00,meteohub,2013-10-16 20:39:00,
2013-10-16 16:44:00,69.4,59.2,29.89,WSW,246,1.0,8.0,70,0.00,,,0.00,meteohub,2013-10-16 20:44:00,
2013-10-16 16:49:00,69.4,59.2,29.89,SE,141,0.0,6.0,70,0.00,,,0.00,meteohub,2013-10-16 20:49:00,
2013-10-16 16:54:00,69.4,59.2,29.89,ESE,112,3.0,7.0,70,0.00,,,0.00,meteohub,2013-10-16 20:54:00,
2013-10-16 16:59:00,69.3,59.5,29.89,East,80,2.0,7.0,71,0.00,,,0.00,meteohub,2013-10-16 20:59:00,
2013-10-16 17:05:00,69.3,59.9,29.89,WNW,301,0.0,7.0,72,0.00,,,0.00,meteohub,2013-10-16 21:05:00,
2013-10-16 17:10:00,69.1,59.7,29.89,East,82,0.0,7.0,72,0.00,,,0.00,meteohub,2013-10-16 21:10:00,
2013-10-16 17:15:00,69.1,59.7,29.89,ESE,105,1.0,7.0,72,0.00,,,0.00,meteohub,2013-10-16 21:15:00,
2013-10-16 17:20:00,68.7,59.4,29.89,ESE,110,2.0,3.0,72,0.00,,,0.00,meteohub,2013-10-16 21:20:00,
2013-10-16 17:25:00,68.5,59.5,29.89,East,101,2.0,4.0,73,0.00,,,0.00,meteohub,2013-10-16 21:25:00,
2013-10-16 17:30:00,68.4,59.7,29.89,East,81,3.0,4.0,74,0.00,,,0.00,meteohub,2013-10-16 21:30:00,
2013-10-16 17:35:00,68.0,59.4,29.88,ESE,120,2.0,4.0,74,0.00,,,0.00,meteohub,2013-10-16 21:35:00,
2013-10-16 17:40:00,68.0,59.7,29.88,ESE,108,0.0,5.0,75,0.00,,,0.00,meteohub,2013-10-16 21:40:00,
2013-10-16 17:45:00,67.8,59.5,29.88,East,81,0.0,5.0,75,0.00,,,0.00,meteohub,2013-10-16 21:45:00,
2013-10-16 17:50:00,67.6,59.7,29.88,ESE,121,1.0,5.0,76,0.00,,,0.00,meteohub,2013-10-16 21:50:00,
2013-10-16 17:55:00,67.5,60.1,29.88,ENE,78,0.0,2.0,77,0.00,,,0.00,meteohub,2013-10-16 21:55:00,
2013-10-16 18:00:00,67.1,60.1,29.88,East,101,0.0,1.0,78,0.00,,,0.00,meteohub,2013-10-16 22:00:00,
2013-10-16 18:06:00,66.9,59.9,29.88,East,99,0.0,1.0,78,0.00,,,0.00,meteohub,2013-10-16 22:06:00,
2013-10-16 18:11:00,66.7,59.7,29.89,East,96,0.0,1.0,78,0.00,,,0.00,meteohub,2013-10-16 22:11:00,
2013-10-16 18:16:00,66.7,59.4,29.89,East,86,2.0,4.0,77,0.00,,,0.00,meteohub,2013-10-16 22:16:00,
2013-10-16 18:21:00,66.9,59.5,29.89,ESE,102,1.0,4.0,77,0.00,,,0.00,meteohub,2013-10-16 22:21:00,
2013-10-16 18:26:00,66.9,59.2,29.89,SE,126,1.0,4.0,76,0.00,,,0.00,meteohub,2013-10-16 22:26:00,
2013-10-16 18:31:00,66.7,59.4,29.88,East,82,2.0,4.0,77,0.00,,,0.00,meteohub,2013-10-16 22:31:00,
2013-10-16 18:36:00,66.6,59.2,29.88,ESE,113,1.0,4.0,77,0.00,,,0.00,meteohub,2013-10-16 22:36:00,
2013-10-16 18:41:00,66.4,59.4,29.89,East,98,0.0,4.0,78,0.00,,,0.00,meteohub,2013-10-16 22:41:00,
2013-10-16 18:46:00,66.2,59.2,29.89,East,92,1.0,4.0,78,0.00,,,0.00,meteohub,2013-10-16 22:46:00,
2013-10-16 18:51:00,66.0,59.0,29.89,East,101,0.0,3.0,78,0.00,,,0.00,meteohub,2013-10-16 22:51:00,
2013-10-16 18:56:00,65.8,59.2,29.90,East,91,1.0,2.0,79,0.00,,,0.00,meteohub,2013-10-16 22:56:00,
2013-10-16 19:01:00,65.8,59.2,29.89,East,85,0.0,2.0,79,0.00,,,0.00,meteohub,2013-10-16 23:01:00,
2013-10-16 19:06:00,65.8,59.5,29.90,ESE,115,0.0,2.0,80,0.00,,,0.00,meteohub,2013-10-16 23:06:00,
2013-10-16 19:11:00,65.5,59.5,29.90,ESE,115,0.0,2.0,81,0.00,,,0.00,meteohub,2013-10-16 23:11:00,
2013-10-16 19:16:00,64.9,59.4,29.90,ESE,115,0.0,1.0,82,0.00,,,0.00,meteohub,2013-10-16 23:16:00,
2013-10-16 19:22:00,64.6,59.4,29.90,ESE,115,0.0,0.0,83,0.00,,,0.00,meteohub,2013-10-16 23:22:00,
2013-10-16 19:27:00,64.2,59.4,29.90,ESE,114,0.0,0.0,84,0.00,,,0.00,meteohub,2013-10-16 23:27:00,
2013-10-16 19:32:00,64.0,59.4,29.90,ESE,114,0.0,0.0,85,0.00,,,0.00,meteohub,2013-10-16 23:32:00,
2013-10-16 19:37:00,63.9,59.2,29.90,ESE,115,0.0,0.0,85,0.00,,,0.00,meteohub,2013-10-16 23:37:00,
2013-10-16 19:42:00,64.0,59.2,29.90,ESE,109,0.0,0.0,84,0.00,,,0.00,meteohub,2013-10-16 23:42:00,
2013-10-16 19:47:00,64.2,59.5,29.90,East,101,0.0,1.0,85,0.00,,,0.00,meteohub,2013-10-16 23:47:00,
2013-10-16 19:52:00,64.2,59.4,29.91,ESE,106,0.0,1.0,84,0.00,,,0.00,meteohub,2013-10-16 23:52:00,
2013-10-16 19:57:00,64.2,59.4,29.91,East,93,0.0,2.0,84,0.00,,,0.00,meteohub,2013-10-16 23:57:00,
2013-10-16 20:02:00,64.2,59.4,29.91,East,89,0.0,2.0,84,0.00,,,0.00,meteohub,2013-10-17 00:02:00,
2013-10-16 20:07:00,64.2,59.4,29.91,ESE,102,0.0,2.0,84,0.00,,,0.00,meteohub,2013-10-17 00:07:00,
2013-10-16 20:12:00,64.2,59.4,29.91,SE,132,0.0,1.0,84,0.00,,,0.00,meteohub,2013-10-17 00:12:00,
2013-10-16 20:17:00,64.4,59.5,29.91,ESE,115,2.0,4.0,84,0.00,,,0.00,meteohub,2013-10-17 00:17:00,
2013-10-16 20:22:00,64.6,59.4,29.91,SE,131,0.0,5.0,83,0.00,,,0.00,meteohub,2013-10-17 00:22:00,
2013-10-16 20:27:00,64.8,59.5,29.91,SE,127,0.0,5.0,83,0.00,,,0.00,meteohub,2013-10-17 00:27:00,
2013-10-16 20:33:00,64.8,59.2,29.91,East,96,0.0,5.0,82,0.00,,,0.00,meteohub,2013-10-17 00:33:00,
2013-10-16 20:38:00,64.8,59.2,29.91,NNE,13,0.0,4.0,82,0.00,,,0.00,meteohub,2013-10-17 00:38:00,
2013-10-16 20:43:00,64.9,59.0,29.92,ESE,109,0.0,4.0,81,0.00,,,0.00,meteohub,2013-10-17 00:43:00,
2013-10-16 20:48:00,65.1,59.2,29.92,West,274,0.0,4.0,81,0.00,,,0.00,meteohub,2013-10-17 00:48:00,
2013-10-16 20:53:00,65.1,59.2,29.92,West,274,0.0,4.0,81,0.00,,,0.00,meteohub,2013-10-17 00:53:00,
2013-10-16 20:58:00,65.1,59.2,29.92,SSW,212,0.0,4.0,81,0.00,,,0.00,meteohub,2013-10-17 00:58:00,
2013-10-16 21:03:00,65.1,59.2,29.92,WNW,288,0.0,8.0,81,0.00,,,0.00,meteohub,2013-10-17 01:03:00,
2013-10-16 21:08:00,65.1,59.2,29.92,SW,231,0.0,8.0,81,0.00,,,0.00,meteohub,2013-10-17 01:08:00,
2013-10-16 21:13:00,65.1,59.5,29.92,SE,137,0.0,8.0,82,0.00,,,0.00,meteohub,2013-10-17 01:13:00,
2013-10-16 21:18:00,64.9,59.4,29.92,East,89,0.0,6.0,82,0.00,,,0.00,meteohub,2013-10-17 01:18:00,
2013-10-16 21:23:00,64.9,59.4,29.92,WSW,242,2.0,6.0,82,0.00,,,0.00,meteohub,2013-10-17 01:23:00,
2013-10-16 21:28:00,64.8,59.2,29.92,West,281,0.0,5.0,82,0.00,,,0.00,meteohub,2013-10-17 01:28:00,
2013-10-16 21:33:00,64.8,59.2,29.92,West,267,1.0,6.0,82,0.00,,,0.00,meteohub,2013-10-17 01:33:00,
2013-10-16 21:38:00,64.8,59.2,29.92,East,81,3.0,6.0,82,0.00,,,0.00,meteohub,2013-10-17 01:38:00,
2013-10-16 21:44:00,64.8,59.2,29.93,West,271,0.0,6.0,82,0.00,,,0.00,meteohub,2013-10-17 01:44:00,
2013-10-16 21:49:00,64.6,59.4,29.93,North,354,0.0,6.0,83,0.00,,,0.00,meteohub,2013-10-17 01:49:00,
2013-10-16 21:54:00,64.6,59.4,29.93,West,281,3.0,6.0,83,0.00,,,0.00,meteohub,2013-10-17 01:54:00,
2013-10-16 21:59:00,64.6,59.4,29.93,SE,141,0.0,9.0,83,0.00,,,0.00,meteohub,2013-10-17 01:59:00,
2013-10-16 22:04:00,64.6,59.4,29.93,WSW,255,2.0,9.0,83,0.00,,,0.00,meteohub,2013-10-17 02:04:00,
2013-10-16 22:09:00,64.4,59.2,29.93,ESE,119,3.0,9.0,83,0.00,,,0.00,meteohub,2013-10-17 02:09:00,
2013-10-16 22:14:00,64.2,59.4,29.93,West,264,1.0,7.0,84,0.00,,,0.00,meteohub,2013-10-17 02:14:00,
2013-10-16 22:19:00,64.2,59.4,29.93,ESE,103,0.0,7.0,84,0.00,,,0.00,meteohub,2013-10-17 02:19:00,
2013-10-16 22:24:00,64.2,59.4,29.93,WSW,238,1.0,8.0,84,0.00,,,0.00,meteohub,2013-10-17 02:24:00,
2013-10-16 22:29:00,64.0,59.2,29.93,WNW,297,1.0,8.0,84,0.00,,,0.00,meteohub,2013-10-17 02:29:00,
2013-10-16 22:34:00,64.0,59.4,29.93,West,266,2.0,8.0,85,0.00,,,0.00,meteohub,2013-10-17 02:34:00,
2013-10-16 22:39:00,64.0,59.4,29.93,East,86,3.0,6.0,85,0.00,,,0.00,meteohub,2013-10-17 02:39:00,
2013-10-16 22:44:00,64.0,59.4,29.93,WNW,294,0.0,6.0,85,0.00,,,0.00,meteohub,2013-10-17 02:44:00,
2013-10-16 22:49:00,63.9,59.2,29.93,WSW,255,0.0,5.0,85,0.00,,,0.00,meteohub,2013-10-17 02:49:00,
2013-10-16 22:55:00,63.9,59.2,29.93,West,263,0.0,5.0,85,0.00,,,0.00,meteohub,2013-10-17 02:55:00,
2013-10-16 23:00:00,63.9,59.2,29.93,WNW,296,1.0,4.0,85,0.00,,,0.00,meteohub,2013-10-17 03:00:00,
2013-10-16 23:05:00,63.9,59.5,29.93,WNW,284,1.0,3.0,86,0.00,,,0.00,meteohub,2013-10-17 03:05:00,
2013-10-16 23:10:00,63.9,59.5,29.93,WSW,249,0.0,5.0,86,0.00,,,0.00,meteohub,2013-10-17 03:10:00,
2013-10-16 23:15:00,63.9,59.5,29.93,WSW,241,2.0,6.0,86,0.00,,,0.00,meteohub,2013-10-17 03:15:00,
2013-10-16 23:20:00,63.7,59.4,29.92,WNW,286,1.0,6.0,86,0.00,,,0.00,meteohub,2013-10-17 03:20:00,
2013-10-16 23:25:00,63.7,59.4,29.92,West,276,1.0,6.0,86,0.00,,,0.00,meteohub,2013-10-17 03:25:00,
2013-10-16 23:30:00,63.7,59.7,29.92,SE,143,1.0,5.0,87,0.00,,,0.00,meteohub,2013-10-17 03:30:00,
2013-10-16 23:35:00,63.5,59.5,29.92,East,82,0.0,5.0,87,0.00,,,0.00,meteohub,2013-10-17 03:35:00,
2013-10-16 23:40:00,63.3,59.4,29.92,East,85,3.0,4.0,87,0.00,,,0.00,meteohub,2013-10-17 03:40:00,
2013-10-16 23:45:00,63.3,59.7,29.92,East,82,0.0,4.0,88,0.00,,,0.00,meteohub,2013-10-17 03:45:00,
2013-10-16 23:50:00,63.3,59.7,29.92,ESE,110,0.0,4.0,88,0.00,,,0.00,meteohub,2013-10-17 03:50:00,
2013-10-16 23:55:00,63.1,59.5,29.92,SSW,211,0.0,5.0,88,0.00,,,0.00,meteohub,2013-10-17 03:55:00,